Ford Cliff, Pennsylvania
Current Conditions -  °F | °C
As of 8:15 PM on Saturday 22 Nov 2014 (Local Time) from KBTP Reporting Station
Overcast Overcast  
Wind Chill: 39°   Ceiling: 7000
Heat Index: 45°   Visibility: 10mi
Dew Point: 30°   Wind: 10mph
Humidity: 57%   Direction: 190°S
Pressure: 30.12"   Gusts: NA
Location:  40.76°N, 79.53°W
Report Text: KBTP 230115Z AUTO 19009KT 10SM BKN070 OVC090 07/M01 A3012 RMK AO1
Loading
Personal Weather Stations






























Interactive Weather Map New forecast layout! Learn more

10-Day Weather Forecast

Advertisements
Track Severe Weather on mobile